sensor_id;sensor_type;location;lat;lon;timestamp;pressure;altitude;pressure_sealevel;temperature;humidity
71109;BME280;59614;51.012;-1.648;2023-02-22T00:00:38;100402.06;;;6.05;100.00
71109;BME280;59614;51.012;-1.648;2023-02-22T00:03:15;100399.31;;;5.66;100.00
71109;BME280;59614;51.012;-1.648;2023-02-22T00:05:42;100391.44;;;5.53;100.00
71109;BME280;59614;51.012;-1.648;2023-02-22T00:08:20;100397.53;;;5.59;100.00
71109;BME280;59614;51.012;-1.648;2023-02-22T00:10:45;100396.69;;;5.67;100.00
71109;BME280;59614;51.012;-1.648;2023-02-22T00:13:12;100405.47;;;5.88;100.00
71109;BME280;59614;51.012;-1.648;2023-02-22T00:15:39;100399.47;;;6.09;100.00
71109;BME280;59614;51.012;-1.648;2023-02-22T00:18:11;100389.84;;;6.07;100.00
71109;BME280;59614;51.012;-1.648;2023-02-22T00:20:38;100384.59;;;6.10;100.00
71109;BME280;59614;51.012;-1.648;2023-02-22T00:23:11;100393.34;;;6.15;100.00
71109;BME280;59614;51.012;-1.648;2023-02-22T00:25:37;100381.13;;;6.22;100.00
71109;BME280;59614;51.012;-1.648;2023-02-22T00:28:03;100376.75;;;6.36;100.00
71109;BME280;59614;51.012;-1.648;2023-02-22T00:30:29;100384.59;;;6.36;100.00
71109;BME280;59614;51.012;-1.648;2023-02-22T00:32:56;100382.88;;;6.29;100.00
71109;BME280;59614;51.012;-1.648;2023-02-22T00:35:25;100379.38;;;6.27;100.00
71109;BME280;59614;51.012;-1.648;2023-02-22T00:37:54;100368.88;;;6.44;100.00
71109;BME280;59614;51.012;-1.648;2023-02-22T00:40:23;100371.50;;;6.39;100.00
71109;BME280;59614;51.012;-1.648;2023-02-22T00:42:49;100369.75;;;6.43;100.00
71109;BME280;59614;51.012;-1.648;2023-02-22T00:45:16;100364.53;;;6.44;100.00
71109;BME280;59614;51.012;-1.648;2023-02-22T00:47:42;100361.03;;;6.41;100.00
71109;BME280;59614;51.012;-1.648;2023-02-22T00:50:08;100359.28;;;6.32;100.00
71109;BME280;59614;51.012;-1.648;2023-02-22T00:52:34;100367.13;;;6.21;100.00
71109;BME280;59614;51.012;-1.648;2023-02-22T00:55:00;100351.41;;;6.33;100.00
71109;BME280;59614;51.012;-1.648;2023-02-22T00:57:26;100352.28;;;6.40;100.00
71109;BME280;59614;51.012;-1.648;2023-02-22T00:59:52;100355.78;;;6.39;100.00
71109;BME280;59614;51.012;-1.648;2023-02-22T01:02:18;100354.91;;;6.36;100.00
71109;BME280;59614;51.012;-1.648;2023-02-22T01:04:44;100338.28;;;6.43;100.00
71109;BME280;59614;51.012;-1.648;2023-02-22T01:07:09;100341.78;;;6.42;100.00
71109;BME280;59614;51.012;-1.648;2023-02-22T01:09:35;100340.91;;;6.43;100.00
71109;BME280;59614;51.012;-1.648;2023-02-22T01:12:00;100340.94;;;6.40;100.00
71109;BME280;59614;51.012;-1.648;2023-02-22T01:14:27;100341.81;;;6.46;100.00
71109;BME280;59614;51.012;-1.648;2023-02-22T01:16:53;100332.19;;;6.47;100.00
71109;BME280;59614;51.012;-1.648;2023-02-22T01:19:20;100328.69;;;6.45;100.00
71109;BME280;59614;51.012;-1.648;2023-02-22T01:21:47;100320.84;;;6.34;100.00
71109;BME280;59614;51.012;-1.648;2023-02-22T01:24:13;100335.69;;;6.33;100.00
71109;BME280;59614;51.012;-1.648;2023-02-22T01:26:47;100333.06;;;6.49;100.00
71109;BME280;59614;51.012;-1.648;2023-02-22T01:29:14;100333.94;;;6.51;100.00
71109;BME280;59614;51.012;-1.648;2023-02-22T01:31:49;100332.19;;;6.30;100.00
71109;BME280;59614;51.012;-1.648;2023-02-22T01:34:16;100326.94;;;6.31;100.00
71109;BME280;59614;51.012;-1.648;2023-02-22T01:36:41;100328.69;;;6.36;100.00
71109;BME280;59614;51.012;-1.648;2023-02-22T01:39:07;100334.81;;;6.50;100.00
71109;BME280;59614;51.012;-1.648;2023-02-22T01:41:34;100333.06;;;6.43;100.00
71109;BME280;59614;51.012;-1.648;2023-02-22T01:44:31;100332.22;;;6.28;100.00
71109;BME280;59614;51.012;-1.648;2023-02-22T01:47:00;100324.31;;;6.34;100.00
71109;BME280;59614;51.012;-1.648;2023-02-22T01:52:03;100318.22;;;6.43;100.00
71109;BME280;59614;51.012;-1.648;2023-02-22T01:54:36;100318.22;;;6.40;100.00
71109;BME280;59614;51.012;-1.648;2023-02-22T01:59:35;100316.47;;;6.27;100.00
71109;BME280;59614;51.012;-1.648;2023-02-22T02:02:02;100313.84;;;6.17;100.00
71109;BME280;59614;51.012;-1.648;2023-02-22T02:04:32;100320.84;;;6.15;100.00
71109;BME280;59614;51.012;-1.648;2023-02-22T02:07:03;100306.00;;;6.05;100.00
71109;BME280;59614;51.012;-1.648;2023-02-22T02:09:42;100311.25;;;6.24;100.00
71109;BME280;59614;51.012;-1.648;2023-02-22T02:12:10;100308.63;;;6.24;100.00
71109;BME280;59614;51.012;-1.648;2023-02-22T02:14:37;100303.34;;;6.39;100.00
71109;BME280;59614;51.012;-1.648;2023-02-22T02:17:11;100309.47;;;6.46;100.00
71109;BME280;59614;51.012;-1.648;2023-02-22T02:22:40;100279.75;;;5.88;100.00
71109;BME280;59614;51.012;-1.648;2023-02-22T02:31:31;100276.25;;;5.80;100.00
71109;BME280;59614;51.012;-1.648;2023-02-22T02:34:03;100278.03;;;5.79;100.00
71109;BME280;59614;51.012;-1.648;2023-02-22T02:36:36;100280.66;;;5.88;100.00
71109;BME280;59614;51.012;-1.648;2023-02-22T02:39:22;100278.00;;;5.95;100.00
71109;BME280;59614;51.012;-1.648;2023-02-22T02:41:50;100278.94;;;6.05;100.00
71109;BME280;59614;51.012;-1.648;2023-02-22T02:44:31;100269.28;;;5.93;100.00
71109;BME280;59614;51.012;-1.648;2023-02-22T02:47:07;100264.91;;;5.87;100.00
71109;BME280;59614;51.012;-1.648;2023-02-22T02:52:14;100275.41;;;5.85;100.00
71109;BME280;59614;51.012;-1.648;2023-02-22T02:54:42;100274.53;;;5.94;100.00
71109;BME280;59614;51.012;-1.648;2023-02-22T02:57:09;100272.81;;;6.12;100.00
71109;BME280;59614;51.012;-1.648;2023-02-22T02:59:36;100273.66;;;6.31;100.00
71109;BME280;59614;51.012;-1.648;2023-02-22T03:07:36;100272.75;;;6.49;100.00
71109;BME280;59614;51.012;-1.648;2023-02-22T03:15:44;100274.53;;;6.10;100.00
71109;BME280;59614;51.012;-1.648;2023-02-22T03:18:19;100264.94;;;6.21;100.00
71109;BME280;59614;51.012;-1.648;2023-02-22T03:21:00;100263.19;;;6.03;100.00
71109;BME280;59614;51.012;-1.648;2023-02-22T03:26:58;100254.44;;;6.33;100.00
71109;BME280;59614;51.012;-1.648;2023-02-22T03:29:26;100247.47;;;6.18;100.00
71109;BME280;59614;51.012;-1.648;2023-02-22T03:31:56;100243.97;;;5.96;100.00
71109;BME280;59614;51.012;-1.648;2023-02-22T03:34:33;100237.84;;;5.69;100.00
71109;BME280;59614;51.012;-1.648;2023-02-22T03:37:04;100236.13;;;5.71;100.00
71109;BME280;59614;51.012;-1.648;2023-02-22T03:39:35;100238.72;;;5.81;100.00
71109;BME280;59614;51.012;-1.648;2023-02-22T03:42:28;100236.97;;;5.77;100.00
71109;BME280;59614;51.012;-1.648;2023-02-22T03:44:57;100236.97;;;5.92;100.00
71109;BME280;59614;51.012;-1.648;2023-02-22T03:47:33;100239.63;;;6.12;100.00
71109;BME280;59614;51.012;-1.648;2023-02-22T03:50:08;100232.59;;;6.22;100.00
71109;BME280;59614;51.012;-1.648;2023-02-22T03:52:35;100237.88;;;6.00;100.00
71109;BME280;59614;51.012;-1.648;2023-02-22T03:55:02;100230.84;;;6.21;100.00
71109;BME280;59614;51.012;-1.648;2023-02-22T03:57:33;100223.88;;;6.26;100.00
71109;BME280;59614;51.012;-1.648;2023-02-22T03:59:59;100233.47;;;6.24;100.00
71109;BME280;59614;51.012;-1.648;2023-02-22T04:02:25;100226.47;;;6.37;100.00
71109;BME280;59614;51.012;-1.648;2023-02-22T04:04:50;100227.34;;;6.27;100.00
71109;BME280;59614;51.012;-1.648;2023-02-22T04:07:16;100226.47;;;6.37;100.00
71109;BME280;59614;51.012;-1.648;2023-02-22T04:09:42;100223.84;;;6.36;100.00
71109;BME280;59614;51.012;-1.648;2023-02-22T04:12:08;100223.00;;;6.30;100.00
71109;BME280;59614;51.012;-1.648;2023-02-22T04:14:33;100227.34;;;6.33;100.00
71109;BME280;59614;51.012;-1.648;2023-02-22T04:16:59;100223.84;;;6.32;100.00
71109;BME280;59614;51.012;-1.648;2023-02-22T04:19:24;100216.91;;;6.19;100.00
71109;BME280;59614;51.012;-1.648;2023-02-22T04:21:50;100225.63;;;6.27;100.00
71109;BME280;59614;51.012;-1.648;2023-02-22T04:24:15;100220.38;;;6.30;100.00
71109;BME280;59614;51.012;-1.648;2023-02-22T04:26:41;100208.97;;;6.39;100.00
71109;BME280;59614;51.012;-1.648;2023-02-22T04:29:06;100214.22;;;6.42;100.00
71109;BME280;59614;51.012;-1.648;2023-02-22T04:31:33;100202.84;;;6.45;100.00
71109;BME280;59614;51.012;-1.648;2023-02-22T04:33:59;100209.84;;;6.43;100.00
71109;BME280;59614;51.012;-1.648;2023-02-22T04:36:25;100208.97;;;6.42;100.00
71109;BME280;59614;51.012;-1.648;2023-02-22T04:38:51;100214.19;;;6.48;100.00
71109;BME280;59614;51.012;-1.648;2023-02-22T04:41:18;100217.69;;;6.51;100.00
71109;BME280;59614;51.012;-1.648;2023-02-22T04:43:44;100212.47;;;6.49;100.00
71109;BME280;59614;51.012;-1.648;2023-02-22T04:46:09;100211.59;;;6.50;100.00
71109;BME280;59614;51.012;-1.648;2023-02-22T04:48:34;100211.59;;;6.44;100.00
71109;BME280;59614;51.012;-1.648;2023-02-22T04:51:00;100201.13;;;6.38;100.00
71109;BME280;59614;51.012;-1.648;2023-02-22T04:53:25;100205.47;;;6.40;100.00
71109;BME280;59614;51.012;-1.648;2023-02-22T04:55:51;100209.84;;;6.43;100.00
71109;BME280;59614;51.012;-1.648;2023-02-22T04:58:16;100208.13;;;6.39;100.00
71109;BME280;59614;51.012;-1.648;2023-02-22T05:00:42;100207.25;;;6.33;100.00
71109;BME280;59614;51.012;-1.648;2023-02-22T05:03:07;100202.84;;;6.48;100.00
71109;BME280;59614;51.012;-1.648;2023-02-22T05:05:33;100205.47;;;6.42;100.00
71109;BME280;59614;51.012;-1.648;2023-02-22T05:07:58;100202.00;;;6.41;100.00
71109;BME280;59614;51.012;-1.648;2023-02-22T05:10:23;100201.13;;;6.41;100.00
71109;BME280;59614;51.012;-1.648;2023-02-22T05:12:49;100204.63;;;6.40;100.00
71109;BME280;59614;51.012;-1.648;2023-02-22T05:15:17;100197.66;;;6.31;100.00
71109;BME280;59614;51.012;-1.648;2023-02-22T05:17:44;100202.00;;;6.37;100.00
71109;BME280;59614;51.012;-1.648;2023-02-22T05:20:19;100197.66;;;6.23;100.00
71109;BME280;59614;51.012;-1.648;2023-02-22T05:22:46;100196.78;;;6.30;100.00
71109;BME280;59614;51.012;-1.648;2023-02-22T05:25:11;100195.88;;;6.34;100.00
71109;BME280;59614;51.012;-1.648;2023-02-22T05:27:36;100199.38;;;6.33;100.00
71109;BME280;59614;51.012;-1.648;2023-02-22T05:30:03;100196.75;;;6.33;100.00
71109;BME280;59614;51.012;-1.648;2023-02-22T05:32:29;100193.28;;;6.38;100.00
71109;BME280;59614;51.012;-1.648;2023-02-22T05:34:54;100189.75;;;6.45;100.00
71109;BME280;59614;51.012;-1.648;2023-02-22T05:37:19;100194.09;;;6.46;100.00
71109;BME280;59614;51.012;-1.648;2023-02-22T05:39:45;100194.09;;;6.47;100.00
71109;BME280;59614;51.012;-1.648;2023-02-22T05:42:10;100187.97;;;6.48;100.00
71109;BME280;59614;51.012;-1.648;2023-02-22T05:44:36;100199.31;;;6.55;100.00
71109;BME280;59614;51.012;-1.648;2023-02-22T05:47:01;100195.81;;;6.53;100.00
71109;BME280;59614;51.012;-1.648;2023-02-22T05:49:27;100192.34;;;6.48;100.00
71109;BME280;59614;51.012;-1.648;2023-02-22T05:51:52;100206.34;;;6.44;100.00
71109;BME280;59614;51.012;-1.648;2023-02-22T05:54:19;100193.22;;;6.48;100.00
71109;BME280;59614;51.012;-1.648;2023-02-22T05:56:45;100198.50;;;6.45;100.00
71109;BME280;59614;51.012;-1.648;2023-02-22T05:59:10;100192.31;;;6.54;100.00
71109;BME280;59614;51.012;-1.648;2023-02-22T06:01:36;100194.06;;;6.55;100.00
71109;BME280;59614;51.012;-1.648;2023-02-22T06:04:01;100197.59;;;6.51;100.00
71109;BME280;59614;51.012;-1.648;2023-02-22T06:06:27;100194.97;;;6.48;100.00
71109;BME280;59614;51.012;-1.648;2023-02-22T06:08:52;100193.22;;;6.52;100.00
71109;BME280;59614;51.012;-1.648;2023-02-22T06:11:18;100204.59;;;6.46;100.00
71109;BME280;59614;51.012;-1.648;2023-02-22T06:13:51;100201.09;;;6.44;100.00
71109;BME280;59614;51.012;-1.648;2023-02-22T06:16:18;100196.75;;;6.44;100.00
71109;BME280;59614;51.012;-1.648;2023-02-22T06:18:45;100204.59;;;6.46;100.00
71109;BME280;59614;51.012;-1.648;2023-02-22T06:21:10;100211.59;;;6.47;100.00
71109;BME280;59614;51.012;-1.648;2023-02-22T06:23:36;100202.88;;;6.36;100.00
71109;BME280;59614;51.012;-1.648;2023-02-22T06:26:01;100202.84;;;6.45;100.00
71109;BME280;59614;51.012;-1.648;2023-02-22T06:28:26;100197.59;;;6.48;100.00
71109;BME280;59614;51.012;-1.648;2023-02-22T06:30:52;100196.75;;;6.40;100.00
71109;BME280;59614;51.012;-1.648;2023-02-22T06:33:17;100196.75;;;6.37;100.00
71109;BME280;59614;51.012;-1.648;2023-02-22T06:35:43;100195.88;;;6.31;100.00
71109;BME280;59614;51.012;-1.648;2023-02-22T06:38:09;100198.50;;;6.31;100.00
71109;BME280;59614;51.012;-1.648;2023-02-22T06:40:34;100196.78;;;6.30;100.00
71109;BME280;59614;51.012;-1.648;2023-02-22T06:43:01;100196.81;;;6.20;100.00
71109;BME280;59614;51.012;-1.648;2023-02-22T06:45:26;100188.06;;;6.25;100.00
71109;BME280;59614;51.012;-1.648;2023-02-22T06:47:52;100200.31;;;6.25;100.00
71109;BME280;59614;51.012;-1.648;2023-02-22T06:50:27;100195.03;;;6.29;100.00
71109;BME280;59614;51.012;-1.648;2023-02-22T06:52:53;100195.03;;;6.34;100.00
71109;BME280;59614;51.012;-1.648;2023-02-22T06:55:26;100202.03;;;6.29;100.00
71109;BME280;59614;51.012;-1.648;2023-02-22T06:57:52;100194.16;;;6.24;100.00
71109;BME280;59614;51.012;-1.648;2023-02-22T07:00:19;100201.16;;;6.33;100.00
71109;BME280;59614;51.012;-1.648;2023-02-22T07:02:46;100194.16;;;6.26;100.00
71109;BME280;59614;51.012;-1.648;2023-02-22T07:05:14;100197.66;;;6.34;100.00
71109;BME280;59614;51.012;-1.648;2023-02-22T07:07:41;100196.75;;;6.33;100.00
71109;BME280;59614;51.012;-1.648;2023-02-22T07:10:13;100198.50;;;6.41;100.00
71109;BME280;59614;51.012;-1.648;2023-02-22T07:12:40;100213.38;;;6.34;100.00
71109;BME280;59614;51.012;-1.648;2023-02-22T07:15:05;100206.38;;;6.33;100.00
71109;BME280;59614;51.012;-1.648;2023-02-22T07:17:31;100212.53;;;6.23;100.00
71109;BME280;59614;51.012;-1.648;2023-02-22T07:19:56;100218.63;;;6.20;100.00
71109;BME280;59614;51.012;-1.648;2023-02-22T07:22:22;100211.63;;;6.30;100.00
71109;BME280;59614;51.012;-1.648;2023-02-22T07:24:47;100219.47;;;6.38;100.00
71109;BME280;59614;51.012;-1.648;2023-02-22T07:27:13;100218.59;;;6.39;100.00
71109;BME280;59614;51.012;-1.648;2023-02-22T07:29:41;100218.63;;;6.26;100.00
71109;BME280;59614;51.012;-1.648;2023-02-22T07:32:06;100213.38;;;6.39;100.00
71109;BME280;59614;51.012;-1.648;2023-02-22T07:34:32;100227.31;;;6.47;100.00
71109;BME280;59614;51.012;-1.648;2023-02-22T07:36:57;100225.59;;;6.37;100.00
71109;BME280;59614;51.012;-1.648;2023-02-22T07:39:23;100231.69;;;6.42;100.00
71109;BME280;59614;51.012;-1.648;2023-02-22T07:41:48;100236.09;;;6.37;100.00
71109;BME280;59614;51.012;-1.648;2023-02-22T07:44:14;100235.16;;;6.48;100.00
71109;BME280;59614;51.012;-1.648;2023-02-22T07:46:39;100229.91;;;6.48;100.00
71109;BME280;59614;51.012;-1.648;2023-02-22T07:49:04;100229.09;;;6.46;100.00
71109;BME280;59614;51.012;-1.648;2023-02-22T07:51:30;100235.19;;;6.45;100.00
71109;BME280;59614;51.012;-1.648;2023-02-22T07:53:55;100227.28;;;6.58;100.00
71109;BME280;59614;51.012;-1.648;2023-02-22T07:56:21;100232.53;;;6.53;100.00
71109;BME280;59614;51.012;-1.648;2023-02-22T07:58:46;100236.06;;;6.49;100.00
71109;BME280;59614;51.012;-1.648;2023-02-22T08:01:12;100234.31;;;6.42;100.00
71109;BME280;59614;51.012;-1.648;2023-02-22T08:03:38;100236.91;;;6.60;100.00
71109;BME280;59614;51.012;-1.648;2023-02-22T08:06:05;100247.34;;;6.74;100.00
71109;BME280;59614;51.012;-1.648;2023-02-22T08:08:31;100244.72;;;6.67;100.00
71109;BME280;59614;51.012;-1.648;2023-02-22T08:10:57;100235.97;;;6.74;100.00
71109;BME280;59614;51.012;-1.648;2023-02-22T08:13:23;100242.94;;;6.84;100.00
71109;BME280;59614;51.012;-1.648;2023-02-22T08:15:50;100241.19;;;6.80;100.00
71109;BME280;59614;51.012;-1.648;2023-02-22T08:18:18;100241.16;;;6.89;100.00
71109;BME280;59614;51.012;-1.648;2023-02-22T08:20:46;100238.56;;;6.80;100.00
71109;BME280;59614;51.012;-1.648;2023-02-22T08:23:13;100241.19;;;6.83;100.00
71109;BME280;59614;51.012;-1.648;2023-02-22T08:25:39;100237.72;;;6.76;100.00
71109;BME280;59614;51.012;-1.648;2023-02-22T08:28:08;100247.31;;;6.85;100.00
71109;BME280;59614;51.012;-1.648;2023-02-22T08:30:35;100249.03;;;6.88;100.00
71109;BME280;59614;51.012;-1.648;2023-02-22T08:33:01;100249.00;;;6.94;100.00
71109;BME280;59614;51.012;-1.648;2023-02-22T08:35:28;100238.47;;;7.08;100.00
71109;BME280;59614;51.012;-1.648;2023-02-22T08:38:03;100242.81;;;7.04;100.00
71109;BME280;59614;51.012;-1.648;2023-02-22T08:40:32;100239.38;;;6.98;100.00
71109;BME280;59614;51.012;-1.648;2023-02-22T08:42:58;100242.84;;;7.00;100.00
71109;BME280;59614;51.012;-1.648;2023-02-22T08:45:24;100238.50;;;6.97;100.00
71109;BME280;59614;51.012;-1.648;2023-02-22T08:47:50;100238.47;;;7.05;100.00
71109;BME280;59614;51.012;-1.648;2023-02-22T08:50:20;100234.06;;;7.05;100.00
71109;BME280;59614;51.012;-1.648;2023-02-22T08:52:45;100234.09;;;7.04;100.00
71109;BME280;59614;51.012;-1.648;2023-02-22T08:55:11;100230.53;;;7.14;100.00
71109;BME280;59614;51.012;-1.648;2023-02-22T08:57:36;100234.91;;;7.12;100.00
71109;BME280;59614;51.012;-1.648;2023-02-22T09:00:03;100236.69;;;7.11;100.00
71109;BME280;59614;51.012;-1.648;2023-02-22T09:02:29;100241.88;;;7.18;100.00
71109;BME280;59614;51.012;-1.648;2023-02-22T09:04:54;100229.63;;;7.26;100.00
71109;BME280;59614;51.012;-1.648;2023-02-22T09:07:20;100235.75;;;7.19;100.00
71109;BME280;59614;51.012;-1.648;2023-02-22T09:09:45;100226.97;;;7.21;100.00
71109;BME280;59614;51.012;-1.648;2023-02-22T09:12:11;100233.06;;;7.31;100.00
71109;BME280;59614;51.012;-1.648;2023-02-22T09:14:37;100234.75;;;7.41;100.00
71109;BME280;59614;51.012;-1.648;2023-02-22T09:17:02;100225.91;;;7.52;100.00
71109;BME280;59614;51.012;-1.648;2023-02-22T09:19:28;100226.81;;;7.49;100.00
71109;BME280;59614;51.012;-1.648;2023-02-22T09:21:55;100223.25;;;7.56;100.00
71109;BME280;59614;51.012;-1.648;2023-02-22T09:24:21;100229.31;;;7.66;100.00
71109;BME280;59614;51.012;-1.648;2023-02-22T09:26:47;100236.41;;;7.58;100.00
71109;BME280;59614;51.012;-1.648;2023-02-22T09:29:19;100229.25;;;7.76;100.00
71109;BME280;59614;51.012;-1.648;2023-02-22T09:31:48;100231.00;;;7.77;100.00
71109;BME280;59614;51.012;-1.648;2023-02-22T09:34:14;100231.91;;;7.74;100.00
71109;BME280;59614;51.012;-1.648;2023-02-22T09:36:45;100225.69;;;7.81;100.00
71109;BME280;59614;51.012;-1.648;2023-02-22T09:39:13;100231.00;;;7.77;100.00
71109;BME280;59614;51.012;-1.648;2023-02-22T09:47:03;100245.75;;;7.95;100.00
71109;BME280;59614;51.012;-1.648;2023-02-22T09:50:24;100238.66;;;8.00;100.00
71109;BME280;59614;51.012;-1.648;2023-02-22T09:52:27;100244.06;;;7.87;100.00
71109;BME280;59614;51.012;-1.648;2023-02-22T09:55:11;100244.84;;;7.97;100.00
71109;BME280;59614;51.012;-1.648;2023-02-22T09:57:42;100250.09;;;7.94;100.00
71109;BME280;59614;51.012;-1.648;2023-02-22T10:00:16;100245.75;;;7.95;100.00
71109;BME280;59614;51.012;-1.648;2023-02-22T10:05:34;100243.06;;;8.02;100.00
71109;BME280;59614;51.012;-1.648;2023-02-22T10:08:04;100240.22;;;8.24;100.00
71109;BME280;59614;51.012;-1.648;2023-02-22T10:10:38;100240.31;;;8.15;100.00
71109;BME280;59614;51.012;-1.648;2023-02-22T10:18:16;100238.53;;;8.15;100.00
71109;BME280;59614;51.012;-1.648;2023-02-22T10:21:01;100239.44;;;8.13;100.00
71109;BME280;59614;51.012;-1.648;2023-02-22T10:23:40;100236.66;;;8.30;100.00
71109;BME280;59614;51.012;-1.648;2023-02-22T10:28:40;100234.03;;;8.30;100.00
71109;BME280;59614;51.012;-1.648;2023-02-22T10:31:08;100237.38;;;8.47;100.00
71109;BME280;59614;51.012;-1.648;2023-02-22T10:33:45;100234.91;;;8.29;100.00
71109;BME280;59614;51.012;-1.648;2023-02-22T10:36:17;100242.81;;;8.27;100.00
71109;BME280;59614;51.012;-1.648;2023-02-22T10:38:54;100237.53;;;8.32;100.00
71109;BME280;59614;51.012;-1.648;2023-02-22T10:41:44;100236.47;;;8.45;100.00
71109;BME280;59614;51.012;-1.648;2023-02-22T10:44:13;100238.97;;;8.61;100.00
71109;BME280;59614;51.012;-1.648;2023-02-22T10:46:40;100243.28;;;8.68;100.00
71109;BME280;59614;51.012;-1.648;2023-02-22T10:49:07;100243.34;;;8.62;100.00
71109;BME280;59614;51.012;-1.648;2023-02-22T10:51:32;100240.69;;;8.65;100.00
71109;BME280;59614;51.012;-1.648;2023-02-22T10:54:25;100248.47;;;8.74;100.00
71109;BME280;59614;51.012;-1.648;2023-02-22T10:56:54;100242.38;;;8.71;100.00
71109;BME280;59614;51.012;-1.648;2023-02-22T10:59:31;100253.72;;;8.76;100.00
71109;BME280;59614;51.012;-1.648;2023-02-22T11:01:58;100255.34;;;8.88;100.00
71109;BME280;59614;51.012;-1.648;2023-02-22T11:04:24;100254.28;;;9.01;100.00
71109;BME280;59614;51.012;-1.648;2023-02-22T11:07:18;100253.31;;;9.11;100.00
71109;BME280;59614;51.012;-1.648;2023-02-22T11:10:10;100255.56;;;9.38;100.00
71109;BME280;59614;51.012;-1.648;2023-02-22T11:12:38;100257.84;;;9.61;100.00
71109;BME280;59614;51.012;-1.648;2023-02-22T11:17:42;100250.34;;;9.91;100.00
71109;BME280;59614;51.012;-1.648;2023-02-22T11:22:51;100251.53;;;9.73;100.00
71109;BME280;59614;51.012;-1.648;2023-02-22T11:25:21;100254.22;;;9.68;100.00
71109;BME280;59614;51.012;-1.648;2023-02-22T11:27:48;100251.53;;;9.73;100.00
71109;BME280;59614;51.012;-1.648;2023-02-22T11:30:28;100267.13;;;9.87;100.00
71109;BME280;59614;51.012;-1.648;2023-02-22T11:32:59;100257.19;;;10.03;100.00
71109;BME280;59614;51.012;-1.648;2023-02-22T11:37:53;100256.94;;;10.17;100.00
71109;BME280;59614;51.012;-1.648;2023-02-22T11:40:21;100256.34;;;10.01;100.00
71109;BME280;59614;51.012;-1.648;2023-02-22T11:43:13;100256.75;;;10.29;100.00
71109;BME280;59614;51.012;-1.648;2023-02-22T11:45:38;100254.56;;;10.53;100.00
71109;BME280;59614;51.012;-1.648;2023-02-22T11:48:19;100257.94;;;10.11;98.27
71109;BME280;59614;51.012;-1.648;2023-02-22T11:51:09;100254.09;;;10.29;100.00
71109;BME280;59614;51.012;-1.648;2023-02-22T11:56:36;100258.34;;;10.40;99.82
71109;BME280;59614;51.012;-1.648;2023-02-22T12:02:18;100258.84;;;11.04;100.00
71109;BME280;59614;51.012;-1.648;2023-02-22T12:05:17;100250.03;;;11.05;97.01
71109;BME280;59614;51.012;-1.648;2023-02-22T12:15:51;100261.69;;;9.96;87.75
71109;BME280;59614;51.012;-1.648;2023-02-22T12:18:56;100261.00;;;9.85;90.78
71109;BME280;59614;51.012;-1.648;2023-02-22T12:21:17;100256.50;;;9.92;92.34
71109;BME280;59614;51.012;-1.648;2023-02-22T12:23:45;100249.03;;;10.18;94.18
71109;BME280;59614;51.012;-1.648;2023-02-22T12:26:32;100260.47;;;10.16;91.49
71109;BME280;59614;51.012;-1.648;2023-02-22T12:31:44;100244.94;;;10.00;90.67
71109;BME280;59614;51.012;-1.648;2023-02-22T12:34:52;100247.78;;;9.88;92.60
71109;BME280;59614;51.012;-1.648;2023-02-22T12:37:23;100244.19;;;9.94;88.78
71109;BME280;59614;51.012;-1.648;2023-02-22T12:43:01;100254.53;;;10.04;89.81
71109;BME280;59614;51.012;-1.648;2023-02-22T12:51:18;100245.09;;;9.89;87.45
71109;BME280;59614;51.012;-1.648;2023-02-22T12:53:55;100247.94;;;9.77;92.37
71109;BME280;59614;51.012;-1.648;2023-02-22T12:56:38;100261.63;;;9.45;86.74
71109;BME280;59614;51.012;-1.648;2023-02-22T12:59:18;100262.66;;;9.34;84.97
71109;BME280;59614;51.012;-1.648;2023-02-22T13:01:53;100262.66;;;9.34;86.63
71109;BME280;59614;51.012;-1.648;2023-02-22T13:04:20;100269.69;;;9.32;89.22
71109;BME280;59614;51.012;-1.648;2023-02-22T13:12:34;100271.13;;;9.55;90.06
71109;BME280;59614;51.012;-1.648;2023-02-22T13:25:54;100262.81;;;9.80;87.27
71109;BME280;59614;51.012;-1.648;2023-02-22T13:28:43;100272.50;;;10.32;83.96
71109;BME280;59614;51.012;-1.648;2023-02-22T13:33:57;100263.75;;;9.77;83.30
71109;BME280;59614;51.012;-1.648;2023-02-22T13:44:20;100264.41;;;9.34;87.93
71109;BME280;59614;51.012;-1.648;2023-02-22T13:49:45;100267.41;;;9.04;83.58
71109;BME280;59614;51.012;-1.648;2023-02-22T13:52:14;100269.91;;;9.14;88.03
71109;BME280;59614;51.012;-1.648;2023-02-22T13:57:26;100277.16;;;9.63;83.23
71109;BME280;59614;51.012;-1.648;2023-02-22T14:03:05;100272.78;;;9.62;90.46
71109;BME280;59614;51.012;-1.648;2023-02-22T14:05:45;100272.06;;;9.51;88.47
71109;BME280;59614;51.012;-1.648;2023-02-22T14:13:08;100272.25;;;9.35;90.81
71109;BME280;59614;51.012;-1.648;2023-02-22T14:15:34;100265.50;;;9.16;86.57
71109;BME280;59614;51.012;-1.648;2023-02-22T14:18:01;100263.78;;;9.15;89.10
71109;BME280;59614;51.012;-1.648;2023-02-22T14:20:32;100261.09;;;9.18;87.59
71109;BME280;59614;51.012;-1.648;2023-02-22T14:25:49;100265.19;;;10.50;80.96
71109;BME280;59614;51.012;-1.648;2023-02-22T14:31:07;100258.91;;;10.05;78.22
71109;BME280;59614;51.012;-1.648;2023-02-22T14:36:22;100270.31;;;9.50;80.51
71109;BME280;59614;51.012;-1.648;2023-02-22T14:38:51;100266.47;;;10.76;80.24
71109;BME280;59614;51.012;-1.648;2023-02-22T14:41:21;100258.47;;;10.79;75.42
71109;BME280;59614;51.012;-1.648;2023-02-22T14:43:52;100273.09;;;10.95;74.25
71109;BME280;59614;51.012;-1.648;2023-02-22T14:46:22;100264.34;;;10.93;75.50
71109;BME280;59614;51.012;-1.648;2023-02-22T14:48:50;100262.09;;;11.17;75.83
71109;BME280;59614;51.012;-1.648;2023-02-22T14:51:21;100273.66;;;11.11;71.31
71109;BME280;59614;51.012;-1.648;2023-02-22T14:53:51;100268.06;;;11.27;76.53
71109;BME280;59614;51.012;-1.648;2023-02-22T14:56:29;100271.84;;;11.13;75.66
71109;BME280;59614;51.012;-1.648;2023-02-22T15:01:31;100269.91;;;10.29;71.27
71109;BME280;59614;51.012;-1.648;2023-02-22T15:06:46;100269.03;;;9.79;74.06